sensor_id;sensor_type;location;lat;lon;timestamp;pressure;altitude;pressure_sealevel;temperature;humidity
77212;BME280;66206;0.000;0.000;2023-01-10T14:27:15;98449.61;;;12.80;44.81
77212;BME280;66206;0.000;0.000;2023-01-10T14:29:44;98437.17;;;15.68;35.85
77212;BME280;66206;0.000;0.000;2023-01-10T14:32:17;98429.11;;;18.22;30.37
77212;BME280;66206;0.000;0.000;2023-01-10T14:34:41;98428.76;;;19.78;27.82
77212;BME280;66206;0.000;0.000;2023-01-10T14:37:14;98425.20;;;20.53;26.43
77212;BME280;66206;0.000;0.000;2023-01-10T14:39:37;98427.03;;;20.76;26.27
77212;BME280;66206;0.000;0.000;2023-01-10T14:42:05;98425.85;;;20.84;26.08
77212;BME280;66206;0.000;0.000;2023-01-10T14:44:34;98426.03;;;21.21;25.49
77212;BME280;66206;0.000;0.000;2023-01-10T14:47:00;98423.22;;;21.35;24.84
77212;BME280;66206;0.000;0.000;2023-01-10T14:49:32;98419.70;;;21.43;24.92
77212;BME280;66206;0.000;0.000;2023-01-10T14:52:10;98423.77;;;21.37;25.02
77212;BME280;66206;0.000;0.000;2023-01-10T14:54:24;98424.74;;;21.42;25.00
77212;BME280;66206;0.000;0.000;2023-01-10T14:56:54;98421.66;;;21.56;24.77
77212;BME280;66206;0.000;0.000;2023-01-10T14:59:24;98421.63;;;21.35;24.76
77212;BME280;66206;0.000;0.000;2023-01-10T15:01:50;98419.60;;;22.05;24.32
77212;BME280;66206;0.000;0.000;2023-01-10T15:04:16;98417.58;;;21.81;24.39
77212;BME280;66206;0.000;0.000;2023-01-10T15:06:57;98424.86;;;21.59;24.59
77212;BME280;66206;0.000;0.000;2023-01-10T15:09:12;98420.23;;;21.76;24.20
77212;BME280;66206;0.000;0.000;2023-01-10T15:11:32;98419.53;;;22.18;23.93
77212;BME280;66206;0.000;0.000;2023-01-10T15:14:04;98420.47;;;22.12;24.50
77212;BME280;66206;0.000;0.000;2023-01-10T15:16:30;98422.65;;;21.85;24.12
77212;BME280;66206;0.000;0.000;2023-01-10T15:18:55;98422.11;;;22.07;24.01
77212;BME280;66206;0.000;0.000;2023-01-10T15:21:20;98424.67;;;22.01;23.96
77212;BME280;66206;0.000;0.000;2023-01-10T15:23:51;98421.46;;;22.17;23.89
77212;BME280;66206;0.000;0.000;2023-01-10T15:26:17;98419.42;;;22.13;23.94
77212;BME280;66206;0.000;0.000;2023-01-10T15:28:43;98418.20;;;22.08;24.10
77212;BME280;66206;0.000;0.000;2023-01-10T15:31:09;98419.06;;;22.06;23.87
77212;BME280;66206;0.000;0.000;2023-01-10T15:33:39;98414.69;;;22.11;23.89
77212;BME280;66206;0.000;0.000;2023-01-10T15:36:11;98410.65;;;22.45;23.82
77212;BME280;66206;0.000;0.000;2023-01-10T15:38:37;98412.60;;;21.81;24.04
77212;BME280;66206;0.000;0.000;2023-01-10T15:41:05;98411.33;;;22.18;23.76
77212;BME280;66206;0.000;0.000;2023-01-10T15:43:36;98413.57;;;21.91;23.91
77212;BME280;66206;0.000;0.000;2023-01-10T15:46:06;98409.43;;;22.41;23.55
77212;BME280;66206;0.000;0.000;2023-01-10T15:48:36;98400.96;;;22.21;23.72
77212;BME280;66206;0.000;0.000;2023-01-10T15:51:09;98395.45;;;21.97;23.80
77212;BME280;66206;0.000;0.000;2023-01-10T15:54:03;98400.41;;;22.35;23.74
77212;BME280;66206;0.000;0.000;2023-01-10T15:56:02;98400.25;;;22.39;23.78
77212;BME280;66206;0.000;0.000;2023-01-10T15:58:27;98395.90;;;22.14;24.07
77212;BME280;66206;0.000;0.000;2023-01-10T16:00:53;98395.02;;;22.18;23.95
77212;BME280;66206;0.000;0.000;2023-01-10T16:03:21;98394.50;;;22.22;23.96
77212;BME280;66206;0.000;0.000;2023-01-10T16:05:48;98387.28;;;22.11;24.09
77212;BME280;66206;0.000;0.000;2023-01-10T16:08:13;98387.02;;;21.92;24.30
77212;BME280;66206;0.000;0.000;2023-01-10T16:10:43;98385.09;;;22.18;24.08
77212;BME280;66206;0.000;0.000;2023-01-10T16:13:14;98384.65;;;22.39;23.93
77212;BME280;66206;0.000;0.000;2023-01-10T16:15:40;98385.67;;;22.24;24.03
77212;BME280;66206;0.000;0.000;2023-01-10T16:18:10;98389.04;;;22.22;24.10
77212;BME280;66206;0.000;0.000;2023-01-10T16:20:40;98389.43;;;22.41;23.88
77212;BME280;66206;0.000;0.000;2023-01-10T16:23:05;98384.41;;;22.20;24.11
77212;BME280;66206;0.000;0.000;2023-01-10T16:25:31;98380.00;;;22.42;24.01
77212;BME280;66206;0.000;0.000;2023-01-10T16:27:57;98379.31;;;22.23;24.03
77212;BME280;66206;0.000;0.000;2023-01-10T16:30:28;98380.26;;;22.36;23.98
77212;BME280;66206;0.000;0.000;2023-01-10T16:32:53;98377.83;;;22.11;24.14
77212;BME280;66206;0.000;0.000;2023-01-10T16:35:18;98379.65;;;22.07;24.06
77212;BME280;66206;0.000;0.000;2023-01-10T16:37:43;98381.63;;;22.24;24.21
77212;BME280;66206;0.000;0.000;2023-01-10T16:40:15;98378.88;;;22.19;24.14
77212;BME280;66206;0.000;0.000;2023-01-10T16:42:41;98380.37;;;22.03;24.20
77212;BME280;66206;0.000;0.000;2023-01-10T16:45:11;98379.59;;;22.17;24.08
77212;BME280;66206;0.000;0.000;2023-01-10T16:47:42;98384.42;;;22.42;24.07
77212;BME280;66206;0.000;0.000;2023-01-10T16:50:12;98382.87;;;22.34;24.09
77212;BME280;66206;0.000;0.000;2023-01-10T16:52:42;98379.97;;;22.47;23.98
77212;BME280;66206;0.000;0.000;2023-01-10T16:55:12;98376.45;;;22.19;24.19
77212;BME280;66206;0.000;0.000;2023-01-10T16:57:38;98378.31;;;22.44;24.02
77212;BME280;66206;0.000;0.000;2023-01-10T17:00:08;98377.76;;;22.22;24.09
77212;BME280;66206;0.000;0.000;2023-01-10T17:02:33;98376.17;;;22.44;24.02
77212;BME280;66206;0.000;0.000;2023-01-10T17:04:58;98379.51;;;22.06;24.18
77212;BME280;66206;0.000;0.000;2023-01-10T17:07:28;98380.97;;;22.23;23.98
77212;BME280;66206;0.000;0.000;2023-01-10T17:09:58;98374.02;;;22.24;23.89
77212;BME280;66206;0.000;0.000;2023-01-10T17:12:29;98372.52;;;22.14;23.98
77212;BME280;66206;0.000;0.000;2023-01-10T17:14:55;98364.97;;;21.99;24.15
77212;BME280;66206;0.000;0.000;2023-01-10T17:17:25;98363.06;;;21.85;24.24
77212;BME280;66206;0.000;0.000;2023-01-10T17:19:55;98360.56;;;22.01;24.28
77212;BME280;66206;0.000;0.000;2023-01-10T17:22:25;98362.48;;;21.83;24.38
77212;BME280;66206;0.000;0.000;2023-01-10T17:24:55;98360.93;;;21.96;24.32
77212;BME280;66206;0.000;0.000;2023-01-10T17:27:25;98361.65;;;21.81;24.75
77212;BME280;66206;0.000;0.000;2023-01-10T17:29:55;98363.58;;;22.17;24.28
77212;BME280;66206;0.000;0.000;2023-01-10T17:32:25;98361.23;;;22.04;24.37
77212;BME280;66206;0.000;0.000;2023-01-10T17:34:55;98362.50;;;21.81;24.52
77212;BME280;66206;0.000;0.000;2023-01-10T17:37:26;98356.82;;;21.46;24.78
77212;BME280;66206;0.000;0.000;2023-01-10T17:39:51;98352.90;;;21.59;24.69
77212;BME280;66206;0.000;0.000;2023-01-10T17:42:21;98350.85;;;21.40;24.84
77212;BME280;66206;0.000;0.000;2023-01-10T17:44:51;98345.99;;;21.40;25.02
77212;BME280;66206;0.000;0.000;2023-01-10T17:47:21;98341.43;;;21.23;25.16
77212;BME280;66206;0.000;0.000;2023-01-10T17:49:51;98340.63;;;21.45;25.02
77212;BME280;66206;0.000;0.000;2023-01-10T17:52:21;98337.27;;;21.23;25.19
77212;BME280;66206;0.000;0.000;2023-01-10T17:54:51;98339.34;;;21.35;25.14
77212;BME280;66206;0.000;0.000;2023-01-10T17:57:21;98348.46;;;21.47;24.82
77212;BME280;66206;0.000;0.000;2023-01-10T17:59:51;98349.96;;;21.80;24.58
77212;BME280;66206;0.000;0.000;2023-01-10T18:02:21;98343.78;;;21.94;24.36
77212;BME280;66206;0.000;0.000;2023-01-10T18:04:51;98344.67;;;21.93;24.38
77212;BME280;66206;0.000;0.000;2023-01-10T18:07:21;98352.92;;;22.03;24.35
77212;BME280;66206;0.000;0.000;2023-01-10T18:09:52;98349.04;;;22.06;24.31
77212;BME280;66206;0.000;0.000;2023-01-10T18:12:22;98347.39;;;22.01;24.28
77212;BME280;66206;0.000;0.000;2023-01-10T18:14:52;98346.11;;;22.18;24.14
77212;BME280;66206;0.000;0.000;2023-01-10T18:17:22;98344.69;;;22.28;23.94
77212;BME280;66206;0.000;0.000;2023-01-10T18:19:52;98340.08;;;22.12;23.86
77212;BME280;66206;0.000;0.000;2023-01-10T18:22:22;98336.97;;;22.14;23.89
77212;BME280;66206;0.000;0.000;2023-01-10T18:24:52;98338.28;;;21.85;24.09
77212;BME280;66206;0.000;0.000;2023-01-10T18:27:17;98337.23;;;22.30;23.77
77212;BME280;66206;0.000;0.000;2023-01-10T18:29:47;98335.01;;;22.91;23.40
77212;BME280;66206;0.000;0.000;2023-01-10T18:32:12;98334.89;;;23.53;23.30
77212;BME280;66206;0.000;0.000;2023-01-10T18:34:42;98332.64;;;23.36;23.29
77212;BME280;66206;0.000;0.000;2023-01-10T18:37:13;98332.33;;;23.38;23.05
77212;BME280;66206;0.000;0.000;2023-01-10T18:39:43;98329.50;;;23.26;23.08
77212;BME280;66206;0.000;0.000;2023-01-10T18:42:13;98331.16;;;23.40;23.03
77212;BME280;66206;0.000;0.000;2023-01-10T18:44:43;98331.33;;;23.00;23.12
77212;BME280;66206;0.000;0.000;2023-01-10T18:47:08;98327.94;;;22.97;23.11
77212;BME280;66206;0.000;0.000;2023-01-10T18:49:38;98328.84;;;23.01;23.14
77212;BME280;66206;0.000;0.000;2023-01-10T18:52:08;98327.54;;;23.08;22.93
77212;BME280;66206;0.000;0.000;2023-01-10T18:54:38;98325.26;;;23.23;22.77
77212;BME280;66206;0.000;0.000;2023-01-10T18:57:08;98322.97;;;23.82;22.29
77212;BME280;66206;0.000;0.000;2023-01-10T18:59:39;98321.11;;;23.64;22.31
77212;BME280;66206;0.000;0.000;2023-01-10T19:02:09;98316.43;;;23.75;22.30
77212;BME280;66206;0.000;0.000;2023-01-10T19:04:34;98309.65;;;23.62;22.30
77212;BME280;66206;0.000;0.000;2023-01-10T19:07:04;98303.64;;;23.83;22.17
77212;BME280;66206;0.000;0.000;2023-01-10T19:09:34;98299.60;;;23.69;22.29
77212;BME280;66206;0.000;0.000;2023-01-10T19:12:04;98292.66;;;23.82;22.18
77212;BME280;66206;0.000;0.000;2023-01-10T19:14:34;98291.69;;;23.55;22.41
77212;BME280;66206;0.000;0.000;2023-01-10T19:17:04;98295.00;;;23.50;22.37
77212;BME280;66206;0.000;0.000;2023-01-10T19:19:34;98290.53;;;23.37;22.51
77212;BME280;66206;0.000;0.000;2023-01-10T19:22:04;98284.62;;;22.79;23.12
77212;BME280;66206;0.000;0.000;2023-01-10T19:24:34;98283.11;;;22.78;23.12
77212;BME280;66206;0.000;0.000;2023-01-10T19:27:04;98285.31;;;22.95;23.01
77212;BME280;66206;0.000;0.000;2023-01-10T19:29:34;98282.42;;;22.35;23.59
77212;BME280;66206;0.000;0.000;2023-01-10T19:32:04;98281.84;;;22.28;23.66
77212;BME280;66206;0.000;0.000;2023-01-10T19:34:35;98281.79;;;22.23;23.84
77212;BME280;66206;0.000;0.000;2023-01-10T19:37:00;98280.78;;;22.33;23.89
77212;BME280;66206;0.000;0.000;2023-01-10T19:39:30;98281.65;;;22.54;23.75
77212;BME280;66206;0.000;0.000;2023-01-10T19:42:00;98279.73;;;22.59;23.56
77212;BME280;66206;0.000;0.000;2023-01-10T19:44:30;98278.33;;;22.36;23.98
77212;BME280;66206;0.000;0.000;2023-01-10T19:47:00;98272.98;;;22.25;23.96
77212;BME280;66206;0.000;0.000;2023-01-10T19:49:30;98275.05;;;22.30;24.17
77212;BME280;66206;0.000;0.000;2023-01-10T19:51:55;98275.64;;;22.37;23.96
77212;BME280;66206;0.000;0.000;2023-01-10T19:54:25;98275.92;;;22.39;24.28
77212;BME280;66206;0.000;0.000;2023-01-10T19:56:55;98277.50;;;22.39;24.01
77212;BME280;66206;0.000;0.000;2023-01-10T19:59:25;98279.49;;;23.01;23.32
77212;BME280;66206;0.000;0.000;2023-01-10T20:01:55;98276.14;;;23.37;23.01
77212;BME280;66206;0.000;0.000;2023-01-10T20:04:26;98275.61;;;23.20;23.11
77212;BME280;66206;0.000;0.000;2023-01-10T20:06:56;98277.01;;;22.94;23.25
77212;BME280;66206;0.000;0.000;2023-01-10T20:09:26;98280.30;;;22.65;23.81
77212;BME280;66206;0.000;0.000;2023-01-10T20:11:56;98284.35;;;22.42;23.83
77212;BME280;66206;0.000;0.000;2023-01-10T20:14:26;98285.56;;;22.33;24.01
77212;BME280;66206;0.000;0.000;2023-01-10T20:16:56;98285.39;;;22.40;23.93
77212;BME280;66206;0.000;0.000;2023-01-10T20:19:26;98273.97;;;22.68;23.80
77212;BME280;66206;0.000;0.000;2023-01-10T20:21:56;98270.69;;;22.33;23.96
77212;BME280;66206;0.000;0.000;2023-01-10T20:24:26;98268.41;;;22.71;23.66
77212;BME280;66206;0.000;0.000;2023-01-10T20:26:57;98269.36;;;22.74;23.71
77212;BME280;66206;0.000;0.000;2023-01-10T20:29:21;98270.37;;;22.65;23.74
77212;BME280;66206;0.000;0.000;2023-01-10T20:31:51;98266.64;;;22.88;23.65
77212;BME280;66206;0.000;0.000;2023-01-10T20:34:21;98266.40;;;22.84;23.61
77212;BME280;66206;0.000;0.000;2023-01-10T20:36:51;98264.40;;;23.24;23.27
77212;BME280;66206;0.000;0.000;2023-01-10T20:39:16;98263.46;;;23.11;23.36
77212;BME280;66206;0.000;0.000;2023-01-10T20:41:46;98253.98;;;23.16;23.28
77212;BME280;66206;0.000;0.000;2023-01-10T20:44:17;98248.82;;;23.11;23.00
77212;BME280;66206;0.000;0.000;2023-01-10T20:46:47;98245.15;;;23.16;22.96
77212;BME280;66206;0.000;0.000;2023-01-10T20:49:17;98249.43;;;23.22;22.91
77212;BME280;66206;0.000;0.000;2023-01-10T20:51:47;98249.14;;;23.30;22.91
77212;BME280;66206;0.000;0.000;2023-01-10T20:54:17;98247.55;;;23.28;23.08
77212;BME280;66206;0.000;0.000;2023-01-10T20:56:47;98240.91;;;22.97;23.31
77212;BME280;66206;0.000;0.000;2023-01-10T20:59:17;98242.90;;;23.02;23.48
77212;BME280;66206;0.000;0.000;2023-01-10T21:01:47;98244.67;;;23.18;23.24
77212;BME280;66206;0.000;0.000;2023-01-10T21:04:17;98246.66;;;22.93;23.51
77212;BME280;66206;0.000;0.000;2023-01-10T21:06:42;98245.88;;;23.26;23.26
77212;BME280;66206;0.000;0.000;2023-01-10T21:09:12;98243.01;;;23.18;23.39
77212;BME280;66206;0.000;0.000;2023-01-10T21:11:41;98238.27;;;25.67;23.32
77212;BME280;66206;0.000;0.000;2023-01-10T21:14:07;98234.01;;;25.34;24.65
77212;BME280;66206;0.000;0.000;2023-01-10T21:16:34;98230.04;;;24.63;25.68
77212;BME280;66206;0.000;0.000;2023-01-10T21:19:00;98235.76;;;24.22;26.32
77212;BME280;66206;0.000;0.000;2023-01-10T21:21:27;98231.29;;;24.17;26.53
77212;BME280;66206;0.000;0.000;2023-01-10T21:23:54;98230.57;;;23.96;26.73
77212;BME280;66206;0.000;0.000;2023-01-10T21:26:20;98224.15;;;23.92;26.81
77212;BME280;66206;0.000;0.000;2023-01-10T21:28:47;98223.97;;;23.85;26.82
77212;BME280;66206;0.000;0.000;2023-01-10T21:31:15;98213.50;;;23.93;26.88
77212;BME280;66206;0.000;0.000;2023-01-10T21:33:42;98215.42;;;23.96;26.81
77212;BME280;66206;0.000;0.000;2023-01-10T21:36:08;98213.36;;;24.12;26.34
77212;BME280;66206;0.000;0.000;2023-01-10T21:38:35;98207.30;;;23.74;26.37
77212;BME280;66206;0.000;0.000;2023-01-10T21:41:04;98204.07;;;23.87;26.43
77212;BME280;66206;0.000;0.000;2023-01-10T21:43:31;98200.55;;;24.02;26.33
77212;BME280;66206;0.000;0.000;2023-01-10T21:45:58;98198.02;;;24.02;26.38
77212;BME280;66206;0.000;0.000;2023-01-10T21:48:25;98192.28;;;24.12;26.35
77212;BME280;66206;0.000;0.000;2023-01-10T21:50:52;98192.46;;;23.53;27.00
77212;BME280;66206;0.000;0.000;2023-01-10T21:53:18;98195.72;;;23.69;26.93
77212;BME280;66206;0.000;0.000;2023-01-10T21:55:45;98192.14;;;23.89;26.70
77212;BME280;66206;0.000;0.000;2023-01-10T21:58:11;98189.41;;;23.85;26.69
77212;BME280;66206;0.000;0.000;2023-01-10T22:00:38;98187.35;;;23.74;26.82
77212;BME280;66206;0.000;0.000;2023-01-10T22:03:04;98181.98;;;23.48;27.06
77212;BME280;66206;0.000;0.000;2023-01-10T22:05:31;98178.55;;;23.64;26.88
77212;BME280;66206;0.000;0.000;2023-01-10T22:07:58;98173.93;;;23.61;26.98
77212;BME280;66206;0.000;0.000;2023-01-10T22:10:24;98174.51;;;23.65;26.96
77212;BME280;66206;0.000;0.000;2023-01-10T22:12:51;98178.23;;;23.62;27.00
77212;BME280;66206;0.000;0.000;2023-01-10T22:15:17;98175.63;;;23.79;26.83
77212;BME280;66206;0.000;0.000;2023-01-10T22:17:44;98178.80;;;23.83;26.80
77212;BME280;66206;0.000;0.000;2023-01-10T22:20:10;98177.19;;;23.97;26.63
77212;BME280;66206;0.000;0.000;2023-01-10T22:22:37;98169.52;;;24.20;26.52
77212;BME280;66206;0.000;0.000;2023-01-10T22:25:04;98169.44;;;24.31;26.32
77212;BME280;66206;0.000;0.000;2023-01-10T22:27:31;98169.33;;;24.05;26.59
77212;BME280;66206;0.000;0.000;2023-01-10T22:29:57;98167.63;;;24.05;26.62
77212;BME280;66206;0.000;0.000;2023-01-10T22:32:24;98158.25;;;24.07;26.51
77212;BME280;66206;0.000;0.000;2023-01-10T22:34:50;98156.89;;;24.36;26.34
77212;BME280;66206;0.000;0.000;2023-01-10T22:37:17;98156.59;;;23.87;26.72
77212;BME280;66206;0.000;0.000;2023-01-10T22:39:43;98157.36;;;24.10;26.56
77212;BME280;66206;0.000;0.000;2023-01-10T22:42:10;98153.71;;;24.21;26.43
77212;BME280;66206;0.000;0.000;2023-01-10T22:44:36;98148.97;;;24.26;26.45
77212;BME280;66206;0.000;0.000;2023-01-10T22:47:03;98151.58;;;23.98;26.63
77212;BME280;66206;0.000;0.000;2023-01-10T22:49:30;98154.40;;;24.16;26.40
77212;BME280;66206;0.000;0.000;2023-01-10T22:51:56;98155.08;;;24.19;26.47
77212;BME280;66206;0.000;0.000;2023-01-10T22:54:23;98151.54;;;24.32;26.39
77212;BME280;66206;0.000;0.000;2023-01-10T22:56:49;98146.78;;;24.48;26.11
77212;BME280;66206;0.000;0.000;2023-01-10T22:59:16;98149.96;;;23.95;25.88
77212;BME280;66206;0.000;0.000;2023-01-10T23:01:43;98151.65;;;24.13;25.43
77212;BME280;66206;0.000;0.000;2023-01-10T23:04:10;98153.59;;;24.12;25.45
77212;BME280;66206;0.000;0.000;2023-01-10T23:06:36;98145.77;;;23.88;25.65
77212;BME280;66206;0.000;0.000;2023-01-10T23:09:03;98146.43;;;24.43;25.34
77212;BME280;66206;0.000;0.000;2023-01-10T23:11:29;98148.32;;;23.93;25.74
77212;BME280;66206;0.000;0.000;2023-01-10T23:13:56;98138.51;;;23.75;25.96
77212;BME280;66206;0.000;0.000;2023-01-10T23:16:23;98134.48;;;23.80;25.91
77212;BME280;66206;0.000;0.000;2023-01-10T23:18:49;98133.61;;;23.59;26.08
77212;BME280;66206;0.000;0.000;2023-01-10T23:21:16;98125.68;;;23.79;25.83
77212;BME280;66206;0.000;0.000;2023-01-10T23:23:43;98122.29;;;23.81;25.87
77212;BME280;66206;0.000;0.000;2023-01-10T23:26:10;98118.99;;;23.83;25.80
77212;BME280;66206;0.000;0.000;2023-01-10T23:28:38;98112.17;;;23.88;25.68
77212;BME280;66206;0.000;0.000;2023-01-10T23:31:05;98108.80;;;24.32;25.23
77212;BME280;66206;0.000;0.000;2023-01-10T23:33:32;98101.00;;;24.19;25.39
77212;BME280;66206;0.000;0.000;2023-01-10T23:35:59;98095.61;;;23.94;25.78
77212;BME280;66206;0.000;0.000;2023-01-10T23:38:26;98093.35;;;23.82;25.90
77212;BME280;66206;0.000;0.000;2023-01-10T23:40:52;98096.42;;;23.77;26.10
77212;BME280;66206;0.000;0.000;2023-01-10T23:43:19;98097.33;;;23.51;26.10
77212;BME280;66206;0.000;0.000;2023-01-10T23:45:46;98096.11;;;23.46;26.26
77212;BME280;66206;0.000;0.000;2023-01-10T23:48:12;98084.88;;;23.74;26.22
77212;BME280;66206;0.000;0.000;2023-01-10T23:50:39;98082.85;;;23.69;26.35
77212;BME280;66206;0.000;0.000;2023-01-10T23:53:05;98078.19;;;23.56;26.35
77212;BME280;66206;0.000;0.000;2023-01-10T23:55:32;98071.89;;;23.63;26.38
77212;BME280;66206;0.000;0.000;2023-01-10T23:57:59;98072.52;;;23.47;26.67
